Okmulgee, OK

9:16 AM CDT on July 28, 2015 (GMT -0500)
Okmulgee Regional | | Change Station
CLOSE
Current Station
Airport
Location: Okmulgee,
Elevation: 722 ft
Nearby Weather Stations
Active Advisory: Heat Advisory

Elev 722 ft 35.67 °N, 95.95 °W | Updated 21 minutes ago

Clear
Clear
83 °F
Feels Like 88 °F
N
8
Wind Variable Wind from SSW
Gusts 18 mph

Today
High -- | Low -- °F
--% Chance of Precip.
Yesterday
High -- | Low -- °F
Precip. -- in
6:28 AM 8:31 PM
Waxing Gibbous, 89% visible
Pressure 29.95 in
Visibility 10.0 miles
Clouds Clear
Heat Index 88 °F
Dew Point 73 °F
Humidity 71%
Rainfall 0.00 in
Snow Depth Not available.
UV 3 out of 12
Pollen 3.90 out of 12
Air Quality Not available.
Flu Activity Not available.
METAR KOKM 281355Z AUTO 20007G16KT 140V220 10SM CLR 28/23 A2995 RMK AO2 T02820226

More Conditions Fewer Conditions

Pressure 29.95 in
Visibility 10.0 miles
Clouds Clear
Heat Index 88 °F
Dew Point 73 °F
Humidity 71%
Rainfall 0.00 in
Snow Depth Not available.
UV 3 out of 12
Pollen 3.90 out of 12
Air Quality Not available.
Flu Activity Not available.
METAR KOKM 281355Z AUTO 20007G16KT 140V220 10SM CLR 28/23 A2995 RMK AO2 T02820226

More Conditions Fewer Conditions

10-Day Weather Forecast

×

Almanac

Astronomy

Jul. 28, 2015 Rise Set
Actual Time
Civil Twilight
Nautical Twilight
Astronomical Twilight
Moon
Length of Visible Light
Length of Day
Tomorrow will be .
, % of the Moon is Illuminated

Today's Extremes

State Highs State Lows

Community

WunderPhotos

Upload Photos

1,841,836 photos uploaded!

WunderBlogs® & News

Nearby

Air Quality

  Air Quality AQ Index Pollutant
Not available.

Snow Depth

Station Depth Elevation

Earthquake Activity

City Distance Mag. Time & Date
Minimum magnitude displayed is 2.5.

Coastal Water Temperatures

Place Temperature

Stations

Nearby Weather Stations

Station Location Temp. Windchill Dew Point Humidity Wind Precip. Elev Updated Type
                   
Heat Advisory
Statement as of 2:51 AM CDT on July 28, 2015

... Heat advisory remains in effect from noon today to 8 PM CDT
this evening...

* dangerous heat and humidity will continue again Tuesday with
heat index values in the 105 to 110 degree range across much
of eastern Oklahoma and west central Arkansas.

* Impacts... the combination of heat and humidity will create a
situation in which heat related illnesses are possible.

Precautionary/preparedness actions...

* drink plenty of fluids... stay in an air-conditioned room...
stay out of the sun... and check up on relatives and neighbors.
Never leave anyone in a closed... parked vehicle... temperatures
inside can reach over 150 degrees quickly... resulting in
death.